Time;durP1;ratioP1;P1;durP2;ratioP2;P2;SDS_P1;SDS_P2;PMS_P1;PMS_P2;Temp;Humidity;BMP_temperature;BMP_pressure;BME280_temperature;BME280_humidity;BME280_pressure;Samples;Min_cycle;Max_cycle;Signal;HPM_P1;HPM_P2
2021/05/19 00:00:32;;;;;;;17.13;3.45;;;18.20;59.20;;;;;;5072490;28;20127;-60
2021/05/19 00:03:00;;;;;;;19.73;4.10;;;18.00;61.30;;;;;;5072343;28;20351;-60
2021/05/19 00:05:27;;;;;;;16.73;5.93;;;17.90;59.80;;;;;;5072086;28;20016;-57
2021/05/19 00:07:55;;;;;;;9.45;3.38;;;17.90;61.70;;;;;;5070562;28;20025;-58
2021/05/19 00:10:22;;;;;;;7.65;3.35;;;17.90;59.90;;;;;;5072310;28;20040;-57
2021/05/19 00:12:49;;;;;;;18.27;5.38;;;17.90;60.40;;;;;;5072358;28;20032;-56
2021/05/19 00:15:17;;;;;;;23.67;10.13;;;18.20;59.10;;;;;;5071809;28;20081;-55
2021/05/19 00:17:46;;;;;;;16.58;6.47;;;18.50;60.10;;;;;;5071414;28;20028;-59
2021/05/19 00:20:15;;;;;;;10.32;4.22;;;18.80;59.30;;;;;;5071682;28;20348;-56
2021/05/19 00:22:43;;;;;;;20.85;5.43;;;18.80;58.10;;;;;;5071795;28;20025;-55
2021/05/19 00:25:11;;;;;;;15.25;6.03;;;18.90;58.80;;;;;;5072141;28;20364;-56
2021/05/19 00:27:39;;;;;;;15.30;4.32;;;19.10;57.70;;;;;;5072268;28;20470;-55
2021/05/19 00:30:07;;;;;;;42.38;7.70;;;19.00;56.60;;;;;;5071628;28;20025;-60
2021/05/19 00:32:35;;;;;;;16.17;4.20;;;19.20;59.90;;;;;;5071505;28;20070;-55
2021/05/19 00:35:02;;;;;;;23.90;7.93;;;19.40;56.50;;;;;;5070575;28;20085;-54
2021/05/19 00:37:30;;;;;;;11.95;5.90;;;19.40;58.20;;;;;;5070718;28;20035;-60
2021/05/19 00:39:57;;;;;;;19.17;7.55;;;19.30;60.00;;;;;;5071694;28;20043;-55
2021/05/19 00:42:24;;;;;;;16.13;5.35;;;19.70;59.90;;;;;;5072156;28;20032;-58
2021/05/19 00:44:52;;;;;;;11.00;4.45;;;19.80;56.40;;;;;;5072055;28;20496;-59
2021/05/19 00:47:36;;;;;;;13.80;6.63;;;19.70;58.00;;;;;;5071453;28;20024;-58
2021/05/19 00:50:06;;;;;;;22.80;9.48;;;19.70;56.10;;;;;;5071526;28;20024;-55
2021/05/19 00:52:33;;;;;;;24.98;7.55;;;19.80;57.40;;;;;;5071022;28;20066;-62
2021/05/19 00:55:01;;;;;;;16.17;3.88;;;20.00;55.50;;;;;;5071238;28;20104;-58
2021/05/19 00:57:29;;;;;;;12.80;3.75;;;19.80;54.40;;;;;;5070890;28;20025;-56
2021/05/19 00:59:58;;;;;;;12.25;6.82;;;20.10;54.80;;;;;;5070516;28;20052;-57
2021/05/19 01:02:26;;;;;;;12.90;3.53;;;20.30;57.90;;;;;;5071403;28;20025;-58
2021/05/19 01:04:53;;;;;;;9.60;5.93;;;20.30;53.60;;;;;;5071949;28;20016;-57
2021/05/19 01:07:29;;;;;;;9.75;3.55;;;20.50;55.40;;;;;;5075055;28;20024;-57
2021/05/19 01:09:56;;;;;;;20.35;5.50;;;20.70;53.20;;;;;;5075572;28;20070;-54
2021/05/19 01:12:24;;;;;;;27.35;5.60;;;20.50;54.20;;;;;;5075718;28;20056;-58
2021/05/19 01:14:53;;;;;;;11.55;4.55;;;20.60;57.30;;;;;;5074518;28;20355;-56
2021/05/19 01:17:21;;;;;;;16.77;4.90;;;20.70;52.30;;;;;;5075294;28;20082;-56
2021/05/19 01:19:53;;;;;;;16.33;5.88;;;20.80;57.60;;;;;;5074869;28;20040;-57
2021/05/19 01:22:21;;;;;;;11.27;3.92;;;20.90;59.90;;;;;;5075466;28;20027;-57
2021/05/19 01:24:50;;;;;;;23.63;5.18;;;21.00;53.00;;;;;;5075817;28;20032;-58
2021/05/19 01:27:18;;;;;;;15.85;6.38;;;21.10;53.60;;;;;;5075479;28;20024;-55
2021/05/19 01:29:53;;;;;;;10.85;4.18;;;21.20;52.30;;;;;;5075606;28;20059;-59
2021/05/19 01:32:21;;;;;;;22.70;4.22;;;21.20;58.40;;;;;;5075586;28;20024;-59
2021/05/19 01:34:48;;;;;;;18.80;4.85;;;21.20;56.30;;;;;;5075484;28;20024;-55
2021/05/19 01:37:16;;;;;;;12.35;5.13;;;21.30;58.70;;;;;;5074828;28;20020;-51
2021/05/19 01:39:45;;;;;;;15.90;6.20;;;21.70;58.80;;;;;;5073495;28;20036;-50
2021/05/19 01:42:14;;;;;;;13.50;6.30;;;21.90;55.30;;;;;;5075014;28;20261;-51
2021/05/19 01:44:41;;;;;;;13.00;7.28;;;22.00;54.90;;;;;;5074889;28;20340;-55
2021/05/19 01:47:09;;;;;;;17.70;6.32;;;22.20;56.40;;;;;;5074812;28;20024;-50
2021/05/19 01:49:43;;;;;;;19.50;10.98;;;22.20;56.70;;;;;;5074783;28;20391;-51
2021/05/19 01:52:16;;;;;;;32.90;7.47;;;22.30;57.30;;;;;;5074675;28;20502;-51
2021/05/19 01:54:44;;;;;;;20.60;10.43;;;22.40;55.50;;;;;;5072800;28;20036;-54
2021/05/19 01:57:12;;;;;;;20.45;8.25;;;22.40;54.60;;;;;;5073916;28;20521;-53
2021/05/19 01:59:39;;;;;;;20.00;10.95;;;22.60;53.60;;;;;;5074067;28;20044;-57
2021/05/19 02:02:08;;;;;;;21.45;7.07;;;22.70;54.50;;;;;;5068090;28;20036;-49
2021/05/19 02:04:39;;;;;;;19.25;10.02;;;22.60;51.30;;;;;;5075220;28;20483;-58
2021/05/19 02:07:06;;;;;;;15.82;8.52;;;22.40;54.20;;;;;;5071796;28;20082;-53
2021/05/19 02:09:34;;;;;;;15.95;7.60;;;22.30;55.40;;;;;;5070956;28;20138;-55
2021/05/19 02:12:01;;;;;;;23.60;8.57;;;22.40;54.70;;;;;;5070185;28;20105;-57
2021/05/19 02:14:28;;;;;;;11.55;7.55;;;22.60;53.40;;;;;;5072273;28;20033;-52
2021/05/19 02:16:56;;;;;;;20.67;8.98;;;22.70;52.80;;;;;;5070939;28;20237;-54
2021/05/19 02:19:23;;;;;;;14.73;9.23;;;22.90;53.80;;;;;;5071365;28;20037;-53
2021/05/19 02:21:51;;;;;;;16.33;8.45;;;23.10;53.20;;;;;;5071371;28;20514;-51
2021/05/19 02:24:19;;;;;;;12.18;7.90;;;23.20;53.50;;;;;;5071140;28;20071;-53
2021/05/19 02:26:47;;;;;;;18.10;8.45;;;23.40;54.10;;;;;;5071412;28;20043;-53
2021/05/19 02:29:15;;;;;;;15.63;9.50;;;23.40;53.30;;;;;;5070568;28;20020;-60
2021/05/19 02:31:44;;;;;;;10.82;8.15;;;23.60;53.80;;;;;;5068101;28;20379;-62
2021/05/19 02:34:13;;;;;;;14.98;7.30;;;23.70;53.20;;;;;;5071266;28;20029;-54
2021/05/19 02:36:41;;;;;;;12.30;9.50;;;23.90;51.60;;;;;;5071062;28;20506;-56
2021/05/19 02:39:11;;;;;;;13.43;8.30;;;23.80;52.60;;;;;;5066982;28;20047;-49
2021/05/19 02:41:40;;;;;;;9.15;7.95;;;23.90;49.80;;;;;;5067175;28;20032;-57
2021/05/19 02:44:09;;;;;;;14.90;8.93;;;23.90;51.70;;;;;;5070926;28;20491;-53
2021/05/19 02:46:37;;;;;;;24.35;12.73;;;24.10;51.70;;;;;;5070565;28;20033;-57
2021/05/19 02:49:05;;;;;;;17.58;10.95;;;23.90;51.40;;;;;;5070883;28;20028;-58
2021/05/19 02:51:38;;;;;;;10.50;8.20;;;24.00;51.10;;;;;;5067808;28;20305;-51
2021/05/19 02:54:08;;;;;;;10.48;6.95;;;24.10;50.20;;;;;;5068898;28;20033;-57
2021/05/19 02:56:36;;;;;;;10.15;6.40;;;24.10;51.00;;;;;;5069739;28;20123;-56
2021/05/19 02:59:04;;;;;;;11.10;7.28;;;23.90;51.50;;;;;;5071054;28;20475;-53
2021/05/19 03:01:32;;;;;;;14.10;6.05;;;23.90;51.40;;;;;;5066942;28;20059;-56
2021/05/19 03:03:59;;;;;;;8.80;5.82;;;24.00;51.10;;;;;;5071172;28;20036;-60
2021/05/19 03:06:27;;;;;;;12.40;5.68;;;24.00;49.20;;;;;;5070700;28;20120;-49
2021/05/19 03:08:54;;;;;;;10.40;5.10;;;24.10;50.80;;;;;;5069585;28;20169;-56
2021/05/19 03:11:22;;;;;;;5.60;5.07;;;24.10;49.80;;;;;;5066952;28;20065;-51
2021/05/19 03:13:49;;;;;;;7.00;4.80;;;24.20;50.20;;;;;;5070757;28;20024;-58
2021/05/19 03:16:21;;;;;;;7.13;5.05;;;24.10;50.30;;;;;;5070802;28;20037;-58
2021/05/19 03:18:48;;;;;;;8.10;4.18;;;24.10;49.30;;;;;;5069371;28;20045;-58
2021/05/19 03:21:16;;;;;;;6.03;4.10;;;24.10;48.70;;;;;;5069690;28;20056;-59
2021/05/19 03:23:43;;;;;;;7.72;4.47;;;24.10;49.00;;;;;;5070252;28;20104;-58
2021/05/19 03:26:11;;;;;;;9.70;4.90;;;24.10;48.80;;;;;;5069300;28;20036;-59
2021/05/19 03:28:38;;;;;;;5.50;3.85;;;24.10;49.80;;;;;;5069800;28;20434;-57
2021/05/19 03:31:06;;;;;;;5.63;3.15;;;24.10;49.60;;;;;;5064755;28;20036;-56
2021/05/19 03:33:34;;;;;;;6.28;4.07;;;24.20;49.30;;;;;;5069510;28;20027;-58
2021/05/19 03:36:02;;;;;;;7.40;3.22;;;24.10;49.70;;;;;;5070188;28;20124;-55
2021/05/19 03:38:29;;;;;;;3.85;3.10;;;24.10;50.10;;;;;;5069975;28;20523;-62
2021/05/19 03:40:57;;;;;;;7.97;3.33;;;24.20;49.90;;;;;;5063697;28;20514;-57
2021/05/19 03:43:24;;;;;;;5.60;3.28;;;24.20;49.90;;;;;;5068421;28;20072;-58
2021/05/19 03:45:52;;;;;;;4.25;2.97;;;24.30;49.00;;;;;;5069496;28;20025;-58
2021/05/19 03:48:20;;;;;;;7.50;3.25;;;24.50;47.90;;;;;;5070140;28;20086;-61
2021/05/19 03:50:47;;;;;;;8.18;2.75;;;24.60;47.50;;;;;;5072558;28;20032;-61
2021/05/19 03:53:15;;;;;;;4.65;2.53;;;24.60;48.90;;;;;;5071097;28;20422;-63
2021/05/19 03:55:45;;;;;;;2.85;1.90;;;24.50;48.60;;;;;;5072045;28;20032;-62
2021/05/19 03:58:14;;;;;;;4.97;2.10;;;24.70;47.90;;;;;;5071871;28;20028;-59
2021/05/19 04:00:42;;;;;;;3.30;2.65;;;24.70;46.20;;;;;;5072056;28;20081;-59
2021/05/19 04:03:09;;;;;;;3.55;1.95;;;24.50;48.80;;;;;;5070506;28;20053;-60
2021/05/19 04:05:37;;;;;;;3.72;2.25;;;24.50;47.60;;;;;;5072330;28;20033;-59
2021/05/19 04:08:07;;;;;;;5.00;2.13;;;24.60;48.60;;;;;;5071972;28;20028;-60
2021/05/19 04:10:35;;;;;;;13.32;2.72;;;24.70;47.30;;;;;;5072510;28;20345;-59
2021/05/19 04:13:05;;;;;;;3.03;2.33;;;24.70;48.50;;;;;;5072088;28;20371;-61
2021/05/19 04:15:34;;;;;;;3.08;1.88;;;24.40;49.10;;;;;;5069535;28;20115;-60
2021/05/19 04:18:03;;;;;;;10.73;2.85;;;24.50;48.10;;;;;;5072204;28;20029;-60
2021/05/19 04:20:30;;;;;;;3.67;2.30;;;24.60;48.20;;;;;;5071755;28;20040;-61
2021/05/19 04:22:58;;;;;;;2.80;1.95;;;24.40;49.20;;;;;;5071668;28;20046;-61
2021/05/19 04:25:25;;;;;;;5.78;2.35;;;24.50;49.00;;;;;;5070305;28;20040;-60
2021/05/19 04:27:52;;;;;;;4.40;2.05;;;24.50;47.40;;;;;;5071751;28;20031;-58
2021/05/19 04:30:20;;;;;;;2.47;1.80;;;24.30;49.50;;;;;;5071866;28;20028;-56
2021/05/19 04:32:47;;;;;;;5.60;2.58;;;24.40;49.60;;;;;;5071847;28;20383;-55
2021/05/19 04:35:15;;;;;;;4.55;1.88;;;24.40;47.80;;;;;;5071722;28;20031;-63
2021/05/19 04:37:42;;;;;;;3.75;2.10;;;24.40;47.30;;;;;;5071739;28;20070;-57
2021/05/19 04:40:10;;;;;;;9.35;1.88;;;24.40;49.70;;;;;;5070239;28;20072;-58
2021/05/19 04:42:38;;;;;;;2.55;1.88;;;24.50;47.60;;;;;;5071430;28;20025;-58
2021/05/19 04:45:06;;;;;;;4.40;1.67;;;24.40;49.30;;;;;;5071626;28;20043;-58
2021/05/19 04:47:34;;;;;;;4.15;1.98;;;24.40;49.40;;;;;;5069885;28;20024;-57
2021/05/19 04:50:01;;;;;;;8.43;1.95;;;24.40;49.40;;;;;;5071813;28;20051;-56
2021/05/19 04:52:28;;;;;;;3.75;1.77;;;24.40;48.50;;;;;;5071524;28;20021;-58
2021/05/19 04:54:59;;;;;;;3.88;1.85;;;24.30;48.20;;;;;;5072015;28;20028;-55
2021/05/19 04:57:26;;;;;;;11.18;2.22;;;24.30;49.50;;;;;;5071254;28;20027;-57
2021/05/19 04:59:53;;;;;;;5.43;2.15;;;24.30;50.10;;;;;;5071979;28;20036;-60
2021/05/19 05:02:21;;;;;;;7.75;2.30;;;24.30;49.40;;;;;;5071483;28;20044;-57
2021/05/19 05:04:48;;;;;;;2.13;1.35;;;24.30;49.60;;;;;;5071846;28;20017;-60
2021/05/19 05:07:15;;;;;;;3.97;1.48;;;24.30;50.40;;;;;;5071018;28;20108;-61
2021/05/19 05:09:47;;;;;;;7.00;2.38;;;24.30;50.70;;;;;;5071322;28;20028;-59
2021/05/19 05:12:15;;;;;;;11.38;2.15;;;24.30;50.30;;;;;;5071735;28;20029;-60
2021/05/19 05:14:43;;;;;;;3.10;1.35;;;24.20;50.40;;;;;;5071473;28;20036;-60
2021/05/19 05:17:10;;;;;;;3.38;1.50;;;24.20;50.60;;;;;;5071251;28;20051;-60
2021/05/19 05:19:37;;;;;;;2.58;1.88;;;24.10;50.80;;;;;;5071534;28;20040;-56
2021/05/19 05:22:05;;;;;;;6.05;2.40;;;24.10;50.90;;;;;;5070604;28;20035;-62
2021/05/19 05:24:32;;;;;;;6.28;1.88;;;24.10;51.10;;;;;;5070960;28;20379;-58
2021/05/19 05:27:00;;;;;;;5.03;1.50;;;24.00;51.20;;;;;;5071607;28;20441;-60
2021/05/19 05:29:27;;;;;;;2.40;1.60;;;24.00;51.50;;;;;;5071307;28;20021;-60
2021/05/19 05:31:54;;;;;;;2.17;1.73;;;24.00;51.30;;;;;;5070441;28;20029;-60
2021/05/19 05:34:22;;;;;;;4.15;1.83;;;24.00;51.40;;;;;;5071173;28;20057;-58
2021/05/19 05:36:49;;;;;;;5.32;1.40;;;23.90;51.20;;;;;;5070925;28;20033;-60
2021/05/19 05:39:18;;;;;;;2.40;1.58;;;23.90;51.50;;;;;;5071359;28;20128;-56
2021/05/19 05:41:46;;;;;;;10.15;1.75;;;23.70;52.30;;;;;;5070791;28;20151;-59
2021/05/19 05:44:14;;;;;;;6.28;2.78;;;23.60;51.90;;;;;;5069669;28;20032;-61
2021/05/19 05:46:41;;;;;;;6.00;1.88;;;23.50;52.10;;;;;;5071174;28;20027;-59
2021/05/19 05:49:08;;;;;;;3.63;1.52;;;23.50;52.10;;;;;;5070915;28;20028;-58
2021/05/19 05:51:36;;;;;;;4.28;1.58;;;23.30;52.40;;;;;;5072331;28;20031;-58
2021/05/19 05:54:05;;;;;;;7.30;1.73;;;23.00;53.00;;;;;;5073534;28;20379;-60
2021/05/19 05:56:33;;;;;;;4.65;1.60;;;22.80;53.40;;;;;;5074841;28;20088;-59
2021/05/19 05:59:00;;;;;;;4.03;1.58;;;22.50;54.20;;;;;;5074864;28;20512;-59
2021/05/19 06:01:28;;;;;;;20.55;3.05;;;22.30;54.70;;;;;;5074085;28;20056;-57
2021/05/19 06:03:55;;;;;;;2.30;1.60;;;22.10;55.10;;;;;;5073970;28;20020;-57
2021/05/19 06:06:22;;;;;;;2.63;1.38;;;22.00;55.80;;;;;;5074597;28;20024;-61
2021/05/19 06:08:50;;;;;;;3.55;1.48;;;21.80;56.40;;;;;;5074430;28;20066;-61
2021/05/19 06:11:17;;;;;;;9.07;3.03;;;21.70;56.80;;;;;;5073771;28;20044;-60
2021/05/19 06:13:44;;;;;;;4.75;1.58;;;21.40;57.20;;;;;;5074092;28;20028;-58
2021/05/19 06:16:12;;;;;;;9.90;1.90;;;21.30;57.60;;;;;;5066290;28;20116;-51
2021/05/19 06:18:39;;;;;;;3.00;1.25;;;21.20;58.00;;;;;;5071578;28;20070;-62
2021/05/19 06:21:06;;;;;;;6.30;1.98;;;21.00;58.80;;;;;;5071554;28;20542;-55
2021/05/19 06:23:34;;;;;;;6.22;1.65;;;20.90;59.00;;;;;;5068761;28;20156;-62
2021/05/19 06:26:01;;;;;;;4.35;1.90;;;20.80;59.40;;;;;;5070769;28;20077;-56
2021/05/19 06:28:29;;;;;;;6.65;2.50;;;20.70;60.10;;;;;;5068638;28;20089;-54
2021/05/19 06:30:56;;;;;;;4.80;2.90;;;20.70;60.20;;;;;;5070870;28;20036;-57
2021/05/19 06:33:24;;;;;;;5.45;3.15;;;20.50;60.70;;;;;;5072178;28;20023;-60
2021/05/19 06:35:51;;;;;;;7.43;3.33;;;20.50;61.00;;;;;;5071308;28;20025;-60
2021/05/19 06:38:18;;;;;;;8.23;3.97;;;20.40;61.30;;;;;;5069746;28;20055;-59
2021/05/19 06:40:47;;;;;;;13.25;2.17;;;20.30;62.00;;;;;;5073149;28;20506;-61
2021/05/19 06:43:14;;;;;;;25.52;3.05;;;20.10;62.60;;;;;;5061778;28;20079;-58
2021/05/19 06:45:42;;;;;;;11.65;2.30;;;20.10;63.30;;;;;;5053700;28;20036;-60
2021/05/19 06:48:09;;;;;;;19.95;3.20;;;19.80;64.00;;;;;;5053812;28;20036;-58
2021/05/19 06:50:36;;;;;;;12.27;4.15;;;19.80;64.40;;;;;;5053348;28;20031;-58
2021/05/19 06:53:04;;;;;;;9.82;4.30;;;19.60;64.90;;;;;;5053575;28;20017;-61
2021/05/19 06:55:31;;;;;;;9.02;2.20;;;19.50;65.20;;;;;;5053413;28;20075;-61
2021/05/19 06:57:59;;;;;;;20.17;4.45;;;19.50;65.60;;;;;;5052805;28;20040;-55
2021/05/19 07:00:26;;;;;;;18.63;6.35;;;19.50;66.30;;;;;;5053294;28;20063;-47
2021/05/19 07:02:54;;;;;;;21.33;11.75;;;19.70;65.70;;;;;;5052136;28;20025;-51
2021/05/19 07:05:21;;;;;;;17.48;10.45;;;19.80;65.40;;;;;;5051041;28;20125;-52
2021/05/19 07:07:48;;;;;;;12.43;6.50;;;19.80;65.00;;;;;;5050389;28;20025;-52
2021/05/19 07:10:16;;;;;;;10.57;5.63;;;19.90;64.90;;;;;;5067987;28;20075;-49
2021/05/19 07:12:43;;;;;;;14.25;6.50;;;20.00;64.90;;;;;;5053375;28;20139;-49
2021/05/19 07:15:12;;;;;;;13.30;4.47;;;19.90;64.80;;;;;;5052739;28;20107;-47
2021/05/19 07:17:40;;;;;;;13.38;4.28;;;19.90;65.20;;;;;;5052225;28;20033;-49
2021/05/19 07:20:10;;;;;;;24.48;5.80;;;19.90;65.60;;;;;;5052674;28;20039;-52
2021/05/19 07:22:41;;;;;;;10.60;4.13;;;19.90;66.30;;;;;;5050909;28;20040;-46
2021/05/19 07:25:10;;;;;;;17.00;3.70;;;19.90;66.10;;;;;;5052814;28;20133;-52
2021/05/19 07:27:37;;;;;;;17.92;4.43;;;19.90;66.40;;;;;;5053092;28;20024;-45
2021/05/19 07:30:06;;;;;;;13.02;3.78;;;19.90;67.20;;;;;;5053041;28;20025;-50
2021/05/19 07:32:33;;;;;;;11.07;3.55;;;19.90;67.40;;;;;;5052866;28;20067;-48
2021/05/19 07:35:00;;;;;;;16.33;3.28;;;19.90;67.40;;;;;;5052311;28;20033;-48
2021/05/19 07:37:29;;;;;;;13.00;2.97;;;19.90;67.20;;;;;;5052448;28;20021;-54
2021/05/19 07:39:56;;;;;;;9.13;2.53;;;19.90;67.00;;;;;;5052770;28;20043;-52
2021/05/19 07:42:24;;;;;;;22.45;3.90;;;19.80;67.10;;;;;;5052518;28;20529;-47
2021/05/19 07:44:51;;;;;;;8.10;2.28;;;19.80;67.70;;;;;;5052797;28;20059;-51
2021/05/19 07:47:18;;;;;;;11.57;2.60;;;19.70;68.10;;;;;;5052124;28;20120;-46
2021/05/19 07:49:45;;;;;;;10.23;3.63;;;19.70;68.50;;;;;;5052122;28;20024;-51
2021/05/19 07:52:13;;;;;;;15.27;3.60;;;19.70;69.00;;;;;;5051776;28;20104;-45
2021/05/19 07:54:40;;;;;;;15.10;4.10;;;19.60;70.00;;;;;;5051713;28;20021;-49
2021/05/19 07:57:13;;;;;;;40.20;4.22;;;19.60;69.50;;;;;;5052392;28;20036;-46
2021/05/19 07:59:42;;;;;;;19.65;3.92;;;19.60;70.20;;;;;;5051737;28;20075;-46
2021/05/19 08:02:11;;;;;;;19.30;4.22;;;19.60;70.90;;;;;;5052557;28;20025;-42
2021/05/19 08:04:39;;;;;;;17.48;4.00;;;19.60;70.80;;;;;;5034642;28;20120;-45
2021/05/19 08:07:07;;;;;;;13.68;3.55;;;19.60;70.50;;;;;;5051850;28;20032;-46
2021/05/19 08:09:35;;;;;;;16.17;3.83;;;19.50;70.60;;;;;;5052685;28;20129;-50
2021/05/19 08:12:02;;;;;;;14.70;3.40;;;19.50;70.60;;;;;;5051850;28;20112;-47
2021/05/19 08:14:30;;;;;;;27.15;4.75;;;19.50;70.90;;;;;;5059637;28;20526;-55
2021/05/19 08:16:58;;;;;;;16.60;4.53;;;19.40;71.20;;;;;;5070320;28;20471;-41
2021/05/19 08:19:26;;;;;;;7.78;3.70;;;19.40;71.50;;;;;;5068589;28;20031;-42
2021/05/19 08:21:53;;;;;;;13.65;4.57;;;19.30;71.60;;;;;;5068926;28;20023;-46
2021/05/19 08:24:20;;;;;;;12.57;3.60;;;19.30;71.80;;;;;;5064970;28;20028;-44
2021/05/19 08:26:49;;;;;;;9.85;4.22;;;19.30;71.90;;;;;;5068283;28;20092;-44
2021/05/19 08:29:16;;;;;;;16.60;5.20;;;19.30;72.20;;;;;;5068873;28;20413;-47
2021/05/19 08:31:44;;;;;;;12.25;4.55;;;19.30;72.10;;;;;;5068472;28;20052;-45
2021/05/19 08:34:11;;;;;;;9.20;4.63;;;19.30;72.20;;;;;;5064540;28;20092;-44
2021/05/19 08:36:39;;;;;;;17.42;5.35;;;19.30;72.30;;;;;;5067930;28;20119;-54
2021/05/19 08:39:07;;;;;;;20.33;5.25;;;19.30;72.60;;;;;;5068923;28;20151;-48
2021/05/19 08:41:35;;;;;;;14.30;5.53;;;19.30;72.60;;;;;;5068509;28;20020;-52
2021/05/19 08:44:03;;;;;;;31.45;8.05;;;19.40;73.70;;;;;;5065215;28;20028;-51
2021/05/19 08:46:32;;;;;;;22.55;11.63;;;19.30;74.00;;;;;;5063094;28;20117;-53
2021/05/19 08:49:05;;;;;;;39.63;11.73;;;19.30;75.00;;;;;;5063456;28;20024;-48
2021/05/19 08:51:33;;;;;;;23.70;11.68;;;19.40;76.30;;;;;;5066750;28;20025;-55
2021/05/19 08:54:02;;;;;;;25.30;13.32;;;19.40;76.70;;;;;;5062102;28;20184;-52
2021/05/19 08:56:29;;;;;;;23.23;12.98;;;19.40;78.30;;;;;;5062083;28;20378;-54
2021/05/19 08:58:56;;;;;;;33.10;14.02;;;19.50;78.50;;;;;;5068553;28;20383;-52
2021/05/19 09:01:25;;;;;;;30.98;15.52;;;19.50;79.70;;;;;;5064969;28;20036;-55
2021/05/19 09:04:03;;;;;;;36.63;14.88;;;19.50;81.30;;;;;;5063438;28;20029;-49
2021/05/19 09:06:32;;;;;;;34.55;14.82;;;19.60;81.50;;;;;;5068915;28;20044;-51
2021/05/19 09:09:00;;;;;;;24.98;13.80;;;19.60;81.30;;;;;;5066636;28;20028;-53
2021/05/19 09:11:27;;;;;;;26.92;12.43;;;19.60;81.40;;;;;;5066396;28;20128;-51
2021/05/19 09:13:54;;;;;;;34.85;13.40;;;19.60;82.50;;;;;;5063851;28;20111;-51
2021/05/19 09:16:30;;;;;;;29.52;14.00;;;19.60;81.90;;;;;;5068093;28;20478;-51
2021/05/19 09:18:58;;;;;;;28.10;11.15;;;19.60;80.60;;;;;;5068383;28;20475;-48
2021/05/19 09:21:36;;;;;;;27.27;12.23;;;19.50;80.00;;;;;;5068329;28;20044;-50
2021/05/19 09:24:14;;;;;;;28.45;12.85;;;19.40;84.10;;;;;;5065319;28;20051;-54
2021/05/19 09:27:02;;;;;;;27.23;11.35;;;19.50;82.60;;;;;;5067137;28;20024;-51
2021/05/19 09:29:36;;;;;;;28.98;12.05;;;19.40;85.00;;;;;;5071699;28;20028;-48
2021/05/19 09:32:13;;;;;;;38.28;12.13;;;19.50;84.40;;;;;;5072043;28;20020;-48
2021/05/19 09:34:43;;;;;;;31.48;9.63;;;19.50;84.90;;;;;;5074028;28;20029;-51
2021/05/19 09:37:14;;;;;;;31.63;7.95;;;19.50;84.90;;;;;;5072847;28;20024;-54
2021/05/19 09:40:00;;;;;;;32.28;9.35;;;19.60;83.80;;;;;;5072641;28;20028;-53
2021/05/19 09:42:37;;;;;;;22.27;6.45;;;19.60;82.60;;;;;;5071216;28;20040;-49
2021/05/19 09:45:18;;;;;;;34.88;6.72;;;19.60;81.90;;;;;;5070803;28;20495;-52
2021/05/19 09:47:46;;;;;;;33.80;7.75;;;19.60;81.50;;;;;;5061468;28;20115;-50
2021/05/19 09:50:18;;;;;;;30.45;7.15;;;19.60;81.50;;;;;;5070344;28;20036;-56
2021/05/19 09:53:06;;;;;;;14.55;6.00;;;19.60;81.90;;;;;;5071983;28;20078;-53
2021/05/19 09:55:35;;;;;;;17.25;7.38;;;19.50;81.80;;;;;;5071055;28;20029;-51
2021/05/19 09:58:03;;;;;;;19.50;5.47;;;19.50;82.40;;;;;;5066006;28;21180;-50
2021/05/19 10:00:32;;;;;;;19.42;6.22;;;19.50;82.20;;;;;;5071743;28;20479;-52
2021/05/19 10:03:01;;;;;;;18.42;5.97;;;19.40;82.10;;;;;;5071048;28;20155;-55
2021/05/19 10:05:42;;;;;;;19.50;5.60;;;19.40;81.70;;;;;;5074432;28;20036;-55
2021/05/19 10:08:09;;;;;;;22.48;6.47;;;19.40;80.50;;;;;;5073665;28;20101;-59
2021/05/19 10:10:38;;;;;;;18.60;5.72;;;19.40;82.40;;;;;;5074709;28;20057;-55
2021/05/19 10:13:08;;;;;;;18.60;5.43;;;19.40;83.00;;;;;;5074558;28;20082;-54
2021/05/19 10:15:37;;;;;;;23.15;5.68;;;19.40;82.70;;;;;;5074643;28;20033;-54
2021/05/19 10:18:16;;;;;;;21.05;5.65;;;19.40;83.60;;;;;;5074750;28;20028;-59
2021/05/19 10:20:50;;;;;;;20.48;5.95;;;19.30;83.70;;;;;;5074227;28;20036;-55
2021/05/19 10:23:25;;;;;;;22.45;6.10;;;19.30;83.30;;;;;;5072996;28;20024;-58
2021/05/19 10:26:04;;;;;;;11.68;5.55;;;19.30;83.40;;;;;;5074420;28;20378;-54
2021/05/19 10:28:45;;;;;;;14.32;5.97;;;19.30;82.20;;;;;;5074685;28;20324;-55
2021/05/19 10:31:41;;;;;;;22.48;5.32;;;19.20;82.50;;;;;;5073832;28;20108;-54
2021/05/19 10:34:09;;;;;;;10.32;5.25;;;19.20;81.30;;;;;;5067575;28;20036;-55
2021/05/19 10:36:38;;;;;;;18.85;5.80;;;19.20;82.20;;;;;;5073659;28;20027;-55
2021/05/19 10:39:11;;;;;;;14.18;5.25;;;19.20;83.00;;;;;;5073198;28;20580;-51
2021/05/19 10:41:41;;;;;;;15.18;5.82;;;19.10;81.00;;;;;;5074261;28;20098;-51
2021/05/19 10:44:10;;;;;;;25.58;5.40;;;19.10;79.90;;;;;;5074181;28;20047;-52
2021/05/19 10:50:07;;;;;;;18.98;5.32;;;19.00;81.30;;;;;;5073824;28;20049;-59
2021/05/19 10:58:49;;;;;;;17.98;5.20;;;18.80;78.30;;;;;;5071904;28;20051;-54
2021/05/19 11:01:17;;;;;;;14.35;5.50;;;18.80;78.00;;;;;;5072404;28;20033;-49
2021/05/19 11:04:16;;;;;;;14.05;4.70;;;18.80;78.30;;;;;;5072629;28;20020;-56
2021/05/19 11:07:02;;;;;;;12.05;4.82;;;18.70;78.60;;;;;;5067869;28;21488;-53
2021/05/19 11:09:40;;;;;;;12.07;5.10;;;18.70;78.50;;;;;;5072695;28;20554;-50
2021/05/19 11:12:24;;;;;;;11.88;5.25;;;18.70;78.30;;;;;;5072872;28;20053;-50
2021/05/19 11:15:01;;;;;;;11.40;5.28;;;18.70;78.40;;;;;;5076116;28;20082;-55
2021/05/19 11:17:42;;;;;;;10.38;5.18;;;18.60;78.30;;;;;;5072671;28;20024;-56
2021/05/19 11:20:12;;;;;;;10.37;5.20;;;18.60;78.20;;;;;;5071025;28;20521;-60
2021/05/19 11:22:39;;;;;;;11.02;4.72;;;18.60;78.30;;;;;;5071515;28;20383;-54
2021/05/19 11:25:08;;;;;;;13.90;5.15;;;18.60;78.30;;;;;;5074514;28;20016;-60
2021/05/19 11:27:36;;;;;;;12.90;5.00;;;18.60;78.50;;;;;;5072480;28;20375;-49
2021/05/19 11:30:29;;;;;;;11.77;4.90;;;18.50;78.40;;;;;;5070432;28;20074;-48
2021/05/19 11:33:09;;;;;;;11.65;4.90;;;18.50;78.50;;;;;;5069313;28;20054;-53
2021/05/19 11:35:38;;;;;;;14.95;4.82;;;18.50;78.30;;;;;;5072053;28;20039;-50
2021/05/19 11:38:08;;;;;;;11.93;5.63;;;18.50;78.20;;;;;;5070723;28;20418;-55
2021/05/19 11:40:49;;;;;;;10.13;5.32;;;18.50;77.90;;;;;;5065792;28;20383;-48
2021/05/19 11:43:18;;;;;;;8.07;4.63;;;18.50;77.70;;;;;;5069945;28;20033;-57
2021/05/19 11:45:52;;;;;;;8.65;4.60;;;18.40;77.50;;;;;;5071004;28;20050;-48
2021/05/19 11:48:21;;;;;;;9.85;5.18;;;18.40;77.30;;;;;;5068491;28;20029;-60
2021/05/19 11:50:48;;;;;;;11.50;5.80;;;18.40;77.30;;;;;;5065746;28;20028;-51
2021/05/19 11:53:16;;;;;;;10.73;5.35;;;18.40;77.30;;;;;;5070372;28;20356;-56
2021/05/19 11:55:55;;;;;;;7.38;4.63;;;18.40;76.90;;;;;;5070499;28;20070;-53
2021/05/19 11:58:28;;;;;;;8.90;5.15;;;18.30;77.00;;;;;;5070811;28;20383;-56
2021/05/19 12:01:15;;;;;;;10.73;5.00;;;18.40;76.80;;;;;;5066353;28;20071;-55
2021/05/19 12:03:45;;;;;;;11.10;5.07;;;18.30;76.80;;;;;;5069306;28;20046;-56
2021/05/19 12:06:14;;;;;;;9.60;4.40;;;18.30;76.50;;;;;;5070635;28;20051;-59
2021/05/19 12:08:48;;;;;;;9.05;4.75;;;18.30;76.40;;;;;;5069762;28;20081;-48
2021/05/19 12:11:21;;;;;;;9.02;4.80;;;18.30;76.40;;;;;;5065558;28;20051;-52
2021/05/19 12:14:04;;;;;;;7.13;4.63;;;18.30;76.30;;;;;;5070059;28;20055;-61
2021/05/19 12:16:43;;;;;;;10.32;4.90;;;18.20;76.10;;;;;;5067416;28;20078;-51
2021/05/19 12:19:15;;;;;;;14.38;5.75;;;18.20;76.10;;;;;;5067722;28;20100;-60
2021/05/19 12:21:46;;;;;;;7.57;4.32;;;18.20;75.90;;;;;;5067915;28;20135;-55
2021/05/19 12:24:16;;;;;;;13.27;4.53;;;18.20;76.00;;;;;;5069445;28;20099;-57
2021/05/19 12:26:46;;;;;;;9.30;4.95;;;18.20;76.00;;;;;;5070188;28;20036;-59
2021/05/19 12:29:33;;;;;;;9.07;5.15;;;18.20;75.80;;;;;;5066690;28;20036;-57
2021/05/19 12:32:27;;;;;;;5.30;4.10;;;18.10;75.60;;;;;;5066716;28;20024;-58
2021/05/19 12:35:09;;;;;;;10.00;4.25;;;18.10;75.60;;;;;;5068612;28;20024;-58
2021/05/19 12:37:46;;;;;;;;;;;18.10;75.50;;;;;;5070574;28;20099;-49
2021/05/19 12:40:15;;;;;;;8.93;4.45;;;18.00;75.50;;;;;;5065451;28;19919;-60
2021/05/19 12:42:53;;;;;;;8.70;4.78;;;18.00;75.60;;;;;;5069595;28;20017;-55
2021/05/19 12:45:42;;;;;;;6.53;4.13;;;18.00;75.60;;;;;;5068436;28;20040;-56
2021/05/19 12:48:11;;;;;;;6.70;4.05;;;18.00;75.60;;;;;;5067518;28;20032;-58
2021/05/19 12:50:41;;;;;;;12.23;4.75;;;17.90;75.50;;;;;;5064722;28;20102;-58
2021/05/19 12:53:09;;;;;;;7.28;4.28;;;17.90;75.60;;;;;;5069353;28;20028;-60
2021/05/19 12:55:37;;;;;;;7.20;4.28;;;17.90;75.60;;;;;;5069070;28;20036;-61
2021/05/19 12:58:12;;;;;;;6.85;3.90;;;17.90;75.70;;;;;;5067908;28;20028;-59
2021/05/19 13:01:00;;;;;;;6.95;3.83;;;17.80;75.70;;;;;;5065725;28;20029;-53
2021/05/19 13:03:36;;;;;;;5.65;3.78;;;17.80;75.70;;;;;;5073771;28;20020;-57